createdAt,value
2017-05-31T00:00:14.582Z,0
2017-05-31T00:01:15.556Z,0
2017-05-31T00:02:16.283Z,0
2017-05-31T00:03:17.003Z,0
2017-05-31T00:04:17.730Z,0
2017-05-31T00:05:18.453Z,0
2017-05-31T00:06:19.430Z,0
2017-05-31T00:07:20.179Z,0
2017-05-31T00:08:20.902Z,0
2017-05-31T00:09:21.628Z,0
2017-05-31T00:10:22.350Z,0
2017-05-31T00:11:23.323Z,0
2017-05-31T00:12:24.046Z,0
2017-05-31T00:13:24.769Z,0
2017-05-31T00:14:25.496Z,0
2017-05-31T00:15:26.220Z,0
2017-05-31T00:16:27.193Z,0
2017-05-31T00:17:27.920Z,0
2017-05-31T00:18:28.643Z,0
2017-05-31T00:19:29.394Z,0
2017-05-31T00:20:30.116Z,0
2017-05-31T00:21:31.116Z,0
2017-05-31T00:22:31.840Z,0
2017-05-31T00:23:32.589Z,0
2017-05-31T00:24:33.334Z,0
2017-05-31T00:25:34.059Z,0
2017-05-31T00:26:35.031Z,0
2017-05-31T00:27:35.755Z,0
2017-05-31T00:28:36.479Z,0
2017-05-31T00:29:37.201Z,0
2017-05-31T00:30:37.925Z,0
2017-05-31T00:31:38.902Z,0
2017-05-31T00:32:39.625Z,0
2017-05-31T00:33:40.351Z,0
2017-05-31T00:34:41.072Z,0
2017-05-31T00:35:41.793Z,0
2017-05-31T00:36:42.793Z,0
2017-05-31T00:37:43.515Z,0
2017-05-31T00:38:44.241Z,0
2017-05-31T00:39:44.966Z,0
2017-05-31T00:40:45.714Z,0
2017-05-31T00:41:46.690Z,0
2017-05-31T00:42:47.415Z,0
2017-05-31T00:43:48.140Z,0
2017-05-31T00:44:48.862Z,0
2017-05-31T00:45:49.586Z,0
2017-05-31T00:46:50.561Z,0
2017-05-31T00:47:51.288Z,0
2017-05-31T00:48:52.013Z,0
2017-05-31T00:49:52.760Z,0
2017-05-31T00:50:53.482Z,0
2017-05-31T00:51:54.455Z,0
2017-05-31T00:52:55.181Z,0
2017-05-31T00:53:55.904Z,0
2017-05-31T00:54:56.631Z,0
2017-05-31T00:56:58.229Z,0
2017-05-31T00:57:58.956Z,0
2017-05-31T00:58:59.679Z,0
2017-05-31T01:00:00.405Z,0
2017-05-31T01:01:01.130Z,0
2017-05-31T01:02:02.105Z,0
2017-05-31T01:03:02.852Z,0
2017-05-31T01:04:03.603Z,0
2017-05-31T01:05:04.328Z,0
2017-05-31T01:06:05.057Z,0
2017-05-31T01:07:06.061Z,0
2017-05-31T01:08:06.785Z,0
2017-05-31T01:09:07.511Z,0
2017-05-31T01:10:08.262Z,0
2017-05-31T01:11:08.990Z,0
2017-05-31T01:12:09.966Z,0
2017-05-31T01:13:10.698Z,0
2017-05-31T01:14:11.421Z,0
2017-05-31T01:15:12.141Z,0
2017-05-31T01:16:12.865Z,0
2017-05-31T01:17:13.842Z,0
2017-05-31T01:18:14.569Z,0
2017-05-31T01:19:15.293Z,0
2017-05-31T01:20:16.019Z,0
2017-05-31T01:21:16.742Z,0
2017-05-31T01:22:17.717Z,0
2017-05-31T01:23:18.441Z,0
2017-05-31T01:24:19.165Z,0
2017-05-31T01:25:19.889Z,0
2017-05-31T01:26:20.617Z,0
2017-05-31T01:27:21.592Z,0
2017-05-31T01:28:22.318Z,0
2017-05-31T01:29:23.069Z,0
2017-05-31T01:30:23.795Z,0
2017-05-31T01:31:24.518Z,0
2017-05-31T01:32:25.502Z,0
2017-05-31T01:33:26.224Z,0
2017-05-31T01:34:26.970Z,0
2017-05-31T01:35:27.698Z,0
2017-05-31T01:36:28.424Z,0
2017-05-31T01:37:29.398Z,0
2017-05-31T01:38:30.121Z,0
2017-05-31T01:39:30.849Z,0
2017-05-31T01:40:31.572Z,0
2017-05-31T01:41:32.297Z,0
2017-05-31T01:42:33.274Z,0
2017-05-31T01:43:34.002Z,0
2017-05-31T01:44:34.725Z,0
2017-05-31T01:45:35.450Z,0
2017-05-31T01:46:36.173Z,0
2017-05-31T01:47:37.151Z,0
2017-05-31T01:48:37.874Z,0
2017-05-31T01:49:38.625Z,0
2017-05-31T01:50:39.377Z,0
2017-05-31T01:51:40.101Z,0
2017-05-31T01:52:41.075Z,0
2017-05-31T01:53:41.803Z,0
2017-05-31T01:54:42.523Z,0
2017-05-31T01:55:43.247Z,0
2017-05-31T01:56:43.975Z,0
2017-05-31T01:57:44.951Z,0
2017-05-31T01:58:45.678Z,0
2017-05-31T01:59:46.403Z,0
2017-05-31T02:00:47.154Z,0
2017-05-31T02:01:47.877Z,0
2017-05-31T02:02:48.852Z,0
2017-05-31T02:03:49.578Z,0
2017-05-31T02:04:50.305Z,0
2017-05-31T02:05:51.027Z,0
2017-05-31T02:06:51.776Z,0
2017-05-31T02:07:52.751Z,0
2017-05-31T02:08:53.476Z,0
2017-05-31T02:09:54.200Z,0
2017-05-31T02:10:54.923Z,0
2017-05-31T02:11:55.649Z,0
2017-05-31T02:12:56.624Z,0
2017-05-31T02:13:57.351Z,0
2017-05-31T02:14:58.076Z,0
2017-05-31T02:15:58.801Z,0
2017-05-31T02:16:59.524Z,0
2017-05-31T02:18:00.498Z,0
2017-05-31T02:19:01.225Z,0
2017-05-31T02:20:01.953Z,0
2017-05-31T02:21:02.676Z,0
2017-05-31T02:22:03.422Z,0
2017-05-31T02:23:04.396Z,0
2017-05-31T02:24:05.123Z,0
2017-05-31T02:25:05.846Z,0
2017-05-31T02:26:06.568Z,0
2017-05-31T02:27:07.293Z,0
2017-05-31T02:28:08.266Z,0
2017-05-31T02:29:08.993Z,0
2017-05-31T02:30:09.716Z,0
2017-05-31T02:31:10.468Z,0
2017-05-31T02:32:11.192Z,0
2017-05-31T02:33:12.169Z,0
2017-05-31T02:34:12.893Z,0
2017-05-31T02:35:13.644Z,0
2017-05-31T02:36:14.371Z,0
2017-05-31T02:37:15.093Z,0
2017-05-31T02:38:16.065Z,0
2017-05-31T02:39:16.826Z,0
2017-05-31T02:40:17.561Z,0
2017-05-31T02:41:18.285Z,0
2017-05-31T02:42:19.013Z,0
2017-05-31T02:43:19.989Z,0
2017-05-31T02:44:20.715Z,0
2017-05-31T02:45:21.440Z,0
2017-05-31T02:46:22.166Z,0
2017-05-31T02:47:22.889Z,0
2017-05-31T02:48:23.866Z,0
2017-05-31T02:49:24.592Z,0
2017-05-31T02:50:25.315Z,0
2017-05-31T02:51:26.038Z,0
2017-05-31T02:52:26.763Z,0
2017-05-31T02:53:27.764Z,0
2017-05-31T02:54:28.488Z,0
2017-05-31T02:55:29.215Z,0
2017-05-31T02:56:29.944Z,0
2017-05-31T02:57:30.667Z,0
2017-05-31T02:58:31.644Z,0
2017-05-31T02:59:32.373Z,0
2017-05-31T03:00:33.097Z,0
2017-05-31T03:01:33.821Z,0
2017-05-31T03:02:34.571Z,0
2017-05-31T03:03:35.550Z,0
2017-05-31T03:04:36.276Z,0
2017-05-31T03:05:37.027Z,0
2017-05-31T03:06:37.752Z,0
2017-05-31T03:07:38.481Z,0
2017-05-31T03:08:39.456Z,0
2017-05-31T03:09:40.182Z,0
2017-05-31T03:10:40.909Z,0
2017-05-31T03:11:41.638Z,0
2017-05-31T03:12:42.366Z,0
2017-05-31T03:13:43.342Z,5
2017-05-31T03:14:44.067Z,5
2017-05-31T03:15:44.796Z,5
2017-05-31T03:16:45.523Z,5
2017-05-31T03:17:46.252Z,5
2017-05-31T03:18:47.227Z,5
2017-05-31T03:19:47.951Z,5
2017-05-31T03:20:48.679Z,5
2017-05-31T03:21:49.407Z,5
2017-05-31T03:22:50.135Z,5
2017-05-31T03:23:51.110Z,5
2017-05-31T03:24:51.838Z,5
2017-05-31T03:25:52.565Z,10
2017-05-31T03:26:53.294Z,10
2017-05-31T03:27:54.022Z,10
2017-05-31T03:28:55.002Z,10
2017-05-31T03:29:55.732Z,10
2017-05-31T03:30:56.460Z,10
2017-05-31T03:31:57.187Z,10
2017-05-31T03:32:57.939Z,15
2017-05-31T03:33:58.918Z,15
2017-05-31T03:34:59.648Z,15
2017-05-31T03:36:00.375Z,15
2017-05-31T03:37:01.106Z,15
2017-05-31T03:38:01.834Z,15
2017-05-31T03:39:02.810Z,15
2017-05-31T03:40:03.537Z,15
2017-05-31T03:41:04.266Z,20
2017-05-31T03:42:04.995Z,20
2017-05-31T03:43:05.722Z,20
2017-05-31T03:44:06.701Z,20
2017-05-31T03:45:07.429Z,25
2017-05-31T03:46:08.155Z,25
2017-05-31T03:47:08.884Z,25
2017-05-31T03:48:09.635Z,25
2017-05-31T03:49:10.614Z,25
2017-05-31T03:50:11.342Z,25
2017-05-31T03:51:12.071Z,30
2017-05-31T03:52:12.798Z,30
2017-05-31T03:53:13.529Z,30
2017-05-31T03:54:14.504Z,30
2017-05-31T03:55:15.238Z,30
2017-05-31T03:56:15.968Z,30
2017-05-31T03:57:16.694Z,30
2017-05-31T03:58:17.424Z,35
2017-05-31T03:59:18.402Z,35
2017-05-31T04:00:19.155Z,35
2017-05-31T04:01:19.884Z,35
2017-05-31T04:02:20.609Z,35
2017-05-31T04:03:21.340Z,35
2017-05-31T04:04:22.317Z,35
2017-05-31T04:05:23.047Z,40
2017-05-31T04:06:23.774Z,40
2017-05-31T04:07:24.504Z,40
2017-05-31T04:08:25.261Z,40
2017-05-31T04:09:26.268Z,40
2017-05-31T04:10:26.996Z,45
2017-05-31T04:11:27.727Z,45
2017-05-31T04:12:28.456Z,45
2017-05-31T04:13:29.210Z,45
2017-05-31T04:14:30.191Z,45
2017-05-31T04:15:30.918Z,50
2017-05-31T04:16:31.646Z,50
2017-05-31T04:17:32.377Z,50
2017-05-31T04:18:33.109Z,50
2017-05-31T04:19:34.087Z,55
2017-05-31T04:20:34.817Z,55
2017-05-31T04:21:35.543Z,55
2017-05-31T04:22:36.276Z,55
2017-05-31T04:23:37.005Z,55
2017-05-31T04:24:37.987Z,60
2017-05-31T04:25:38.717Z,60
2017-05-31T04:26:39.446Z,60
2017-05-31T04:27:40.179Z,60
2017-05-31T04:28:40.905Z,60
2017-05-31T04:29:41.884Z,65
2017-05-31T04:30:42.611Z,65
2017-05-31T04:31:43.343Z,65
2017-05-31T04:32:44.074Z,65
2017-05-31T04:33:44.806Z,70
2017-05-31T04:34:45.784Z,70
2017-05-31T04:35:46.539Z,70
2017-05-31T04:36:47.272Z,70
2017-05-31T04:37:48.001Z,75
2017-05-31T04:38:48.734Z,75
2017-05-31T04:39:49.713Z,75
2017-05-31T04:40:50.445Z,80
2017-05-31T04:41:51.184Z,80
2017-05-31T04:42:51.904Z,80
2017-05-31T04:43:52.636Z,80
2017-05-31T04:44:53.617Z,80
2017-05-31T04:45:54.346Z,80
2017-05-31T04:46:55.075Z,85
2017-05-31T04:47:55.805Z,85
2017-05-31T04:48:56.534Z,90
2017-05-31T04:49:57.517Z,90
2017-05-31T04:50:58.247Z,90
2017-05-31T04:51:58.978Z,90
2017-05-31T04:52:59.709Z,95
2017-05-31T04:54:00.439Z,95
2017-05-31T04:55:01.423Z,95
2017-05-31T04:56:02.153Z,100
2017-05-31T04:57:02.885Z,100
2017-05-31T04:58:03.618Z,105
2017-05-31T04:59:04.349Z,110
2017-05-31T05:00:05.330Z,120
2017-05-31T05:01:06.061Z,130
2017-05-31T05:02:06.793Z,135
2017-05-31T05:03:07.528Z,140
2017-05-31T05:04:08.259Z,135
2017-05-31T05:05:09.240Z,140
2017-05-31T05:06:09.976Z,135
2017-05-31T05:07:10.708Z,130
2017-05-31T05:08:11.466Z,125
2017-05-31T05:09:12.199Z,115
2017-05-31T05:10:13.184Z,115
2017-05-31T05:11:13.912Z,110
2017-05-31T05:12:14.646Z,110
2017-05-31T05:13:15.406Z,105
2017-05-31T05:14:16.140Z,100
2017-05-31T05:15:17.134Z,100
2017-05-31T05:16:17.854Z,100
2017-05-31T05:17:18.588Z,100
2017-05-31T05:18:19.321Z,115
2017-05-31T05:19:20.052Z,115
2017-05-31T05:20:21.035Z,110
2017-05-31T05:21:21.767Z,130
2017-05-31T05:22:22.499Z,135
2017-05-31T05:23:23.258Z,140
2017-05-31T05:24:23.993Z,155
2017-05-31T05:25:24.973Z,165
2017-05-31T05:26:25.822Z,175
2017-05-31T05:27:26.580Z,175
2017-05-31T05:28:27.313Z,190
2017-05-31T05:29:28.045Z,190
2017-05-31T05:30:29.027Z,185
2017-05-31T05:31:29.790Z,185
2017-05-31T05:32:30.517Z,180
2017-05-31T05:33:31.252Z,175
2017-05-31T05:34:31.987Z,180
2017-05-31T05:35:32.971Z,190
2017-05-31T05:36:33.703Z,200
2017-05-31T05:37:34.433Z,210
2017-05-31T05:38:35.166Z,195
2017-05-31T05:39:35.898Z,195
2017-05-31T05:40:36.879Z,190
2017-05-31T05:41:37.615Z,200
2017-05-31T05:42:38.347Z,200
2017-05-31T05:43:39.083Z,195
2017-05-31T05:44:39.814Z,180
2017-05-31T05:45:40.799Z,170
2017-05-31T05:46:41.533Z,160
2017-05-31T05:47:42.289Z,155
2017-05-31T05:48:43.026Z,145
2017-05-31T05:49:43.786Z,140
2017-05-31T05:50:44.769Z,145
2017-05-31T05:51:45.503Z,150
2017-05-31T05:52:46.234Z,145
2017-05-31T05:53:46.970Z,145
2017-05-31T05:54:47.727Z,150
2017-05-31T05:55:48.712Z,150
2017-05-31T05:56:49.444Z,155
2017-05-31T05:57:50.202Z,155
2017-05-31T05:58:50.939Z,160
2017-05-31T05:59:51.673Z,165
2017-05-31T06:00:52.660Z,165
2017-05-31T06:01:53.390Z,170
2017-05-31T06:02:54.124Z,170
2017-05-31T06:03:54.858Z,170
2017-05-31T06:04:55.593Z,170
2017-05-31T06:05:56.575Z,170
2017-05-31T06:06:57.331Z,170
2017-05-31T06:07:58.067Z,170
2017-05-31T06:08:58.806Z,170
2017-05-31T06:09:59.531Z,170
2017-05-31T06:11:00.515Z,170
2017-05-31T06:12:01.246Z,170
2017-05-31T06:13:01.983Z,175
2017-05-31T06:14:02.714Z,175
2017-05-31T06:15:03.446Z,175
2017-05-31T06:16:04.433Z,175
2017-05-31T06:17:05.164Z,180
2017-05-31T06:18:05.900Z,175
2017-05-31T06:19:06.628Z,180
2017-05-31T06:20:07.361Z,180
2017-05-31T06:21:08.347Z,180
2017-05-31T06:22:09.110Z,180
2017-05-31T06:23:09.835Z,180
2017-05-31T06:24:10.568Z,180
2017-05-31T06:25:11.302Z,180
2017-05-31T06:26:12.289Z,180
2017-05-31T06:27:13.018Z,180
2017-05-31T06:28:13.753Z,180
2017-05-31T06:29:14.486Z,180
2017-05-31T06:30:15.218Z,180
2017-05-31T06:31:16.202Z,180
2017-05-31T06:32:16.939Z,180
2017-05-31T06:33:17.670Z,180
2017-05-31T06:34:18.406Z,185
2017-05-31T06:35:19.140Z,180
2017-05-31T06:36:20.124Z,180
2017-05-31T06:37:20.858Z,180
2017-05-31T06:38:21.589Z,185
2017-05-31T06:39:22.324Z,185
2017-05-31T06:40:23.058Z,185
2017-05-31T06:41:24.045Z,190
2017-05-31T06:42:24.802Z,190
2017-05-31T06:43:25.536Z,190
2017-05-31T06:44:26.269Z,195
2017-05-31T06:45:27.005Z,190
2017-05-31T06:46:27.990Z,195
2017-05-31T06:47:28.723Z,195
2017-05-31T06:48:29.457Z,195
2017-05-31T06:49:30.192Z,195
2017-05-31T06:50:30.926Z,195
2017-05-31T06:51:31.910Z,200
2017-05-31T06:52:32.642Z,200
2017-05-31T06:53:33.375Z,195
2017-05-31T06:54:34.112Z,195
2017-05-31T06:55:34.846Z,200
2017-05-31T06:56:35.829Z,200
2017-05-31T06:57:36.562Z,200
2017-05-31T06:58:37.295Z,200
2017-05-31T06:59:38.026Z,200
2017-05-31T07:00:38.759Z,200
2017-05-31T07:01:39.746Z,195
2017-05-31T07:02:40.479Z,205
2017-05-31T07:03:41.239Z,205
2017-05-31T07:04:41.974Z,210
2017-05-31T07:05:42.708Z,210
2017-05-31T07:06:43.695Z,210
2017-05-31T07:07:44.430Z,210
2017-05-31T07:08:45.161Z,215
2017-05-31T07:09:45.893Z,220
2017-05-31T07:10:46.627Z,220
2017-05-31T07:11:47.613Z,220
2017-05-31T07:12:48.346Z,220
2017-05-31T07:13:49.082Z,225
2017-05-31T07:14:49.841Z,230
2017-05-31T07:15:50.578Z,235
2017-05-31T07:16:51.563Z,245
2017-05-31T07:17:52.295Z,245
2017-05-31T07:18:53.032Z,250
2017-05-31T07:19:53.768Z,255
2017-05-31T07:20:54.530Z,250
2017-05-31T07:21:55.514Z,255
2017-05-31T07:22:56.246Z,255
2017-05-31T07:23:56.980Z,255
2017-05-31T07:24:57.715Z,250
2017-05-31T07:25:58.452Z,270
2017-05-31T07:26:59.434Z,260
2017-05-31T07:28:00.174Z,255
2017-05-31T07:29:00.909Z,270
2017-05-31T07:30:01.641Z,265
2017-05-31T07:31:02.374Z,270
2017-05-31T07:32:03.358Z,255
2017-05-31T07:33:04.096Z,295
2017-05-31T07:34:04.852Z,315
2017-05-31T07:35:05.586Z,355
2017-05-31T07:36:06.323Z,425
2017-05-31T07:37:07.308Z,370
2017-05-31T07:38:08.045Z,850
2017-05-31T07:39:08.808Z,1115
2017-05-31T07:40:09.542Z,1155
2017-05-31T07:41:10.281Z,1130
2017-05-31T07:42:11.272Z,1200
2017-05-31T07:43:12.013Z,1155
2017-05-31T07:44:12.751Z,1135
2017-05-31T07:45:13.515Z,1070
2017-05-31T07:46:14.255Z,1125
2017-05-31T07:47:15.250Z,1165
2017-05-31T07:48:16.025Z,1145
2017-05-31T07:49:16.784Z,1210
2017-05-31T07:50:17.551Z,1305
2017-05-31T07:51:18.296Z,1300
2017-05-31T07:52:19.319Z,565
2017-05-31T07:53:20.066Z,1255
2017-05-31T07:54:20.811Z,1210
2017-05-31T07:55:21.557Z,1275
2017-05-31T07:56:22.304Z,1245
2017-05-31T07:57:23.302Z,1275
2017-05-31T07:58:24.048Z,1290
2017-05-31T07:59:24.799Z,1410
2017-05-31T08:00:25.548Z,1405
2017-05-31T08:01:26.296Z,1370
2017-05-31T08:02:27.292Z,1275
2017-05-31T08:03:28.035Z,355
2017-05-31T08:04:28.782Z,1285
2017-05-31T08:05:29.528Z,1415
2017-05-31T08:06:30.275Z,705
2017-05-31T08:07:31.271Z,1295
2017-05-31T08:08:32.018Z,1210
2017-05-31T08:09:32.762Z,800
2017-05-31T08:10:33.507Z,1390
2017-05-31T08:11:34.253Z,1335
2017-05-31T08:12:35.247Z,1310
2017-05-31T08:13:35.996Z,1380
2017-05-31T08:14:36.741Z,1510
2017-05-31T08:15:37.488Z,1535
2017-05-31T08:16:38.229Z,995
2017-05-31T08:17:39.227Z,385
2017-05-31T08:18:39.968Z,1485
2017-05-31T08:19:40.712Z,375
2017-05-31T08:20:41.456Z,315
2017-05-31T08:21:42.224Z,315
2017-05-31T08:22:43.215Z,330
2017-05-31T08:23:43.958Z,385
2017-05-31T08:24:44.702Z,1700
2017-05-31T08:25:45.447Z,1425
2017-05-31T08:26:46.191Z,1730
2017-05-31T08:27:47.183Z,1705
2017-05-31T08:28:47.924Z,1775
2017-05-31T08:29:48.666Z,1715
2017-05-31T08:30:49.413Z,1595
2017-05-31T08:31:50.160Z,1515
2017-05-31T08:32:51.156Z,605
2017-05-31T08:33:51.898Z,455
2017-05-31T08:34:52.641Z,410
2017-05-31T08:35:53.383Z,360
2017-05-31T08:36:54.149Z,1735
2017-05-31T08:37:55.144Z,1770
2017-05-31T08:38:55.889Z,1780
2017-05-31T08:39:56.637Z,1755
2017-05-31T08:40:57.380Z,1785
2017-05-31T08:41:58.126Z,1810
2017-05-31T08:42:59.121Z,1805
2017-05-31T08:43:59.866Z,1835
2017-05-31T08:45:00.615Z,1600
2017-05-31T08:46:01.357Z,325
2017-05-31T08:47:02.100Z,340
2017-05-31T08:48:03.097Z,505
2017-05-31T08:49:03.839Z,1805
2017-05-31T08:50:04.584Z,795
2017-05-31T08:51:05.325Z,1280
2017-05-31T08:52:06.069Z,1810
2017-05-31T08:53:07.063Z,1765
2017-05-31T08:54:07.810Z,1780
2017-05-31T08:55:08.558Z,1885
2017-05-31T08:56:09.298Z,575
2017-05-31T08:57:10.041Z,925
2017-05-31T08:58:11.037Z,490
2017-05-31T08:59:11.801Z,485
2017-05-31T09:00:12.547Z,1280
2017-05-31T09:01:13.290Z,2070
2017-05-31T09:02:14.034Z,1540
2017-05-31T09:03:15.030Z,685
2017-05-31T09:04:15.774Z,505
2017-05-31T09:05:16.512Z,510
2017-05-31T09:06:17.255Z,620
2017-05-31T09:07:17.999Z,480
2017-05-31T09:08:18.994Z,300
2017-05-31T09:09:19.734Z,290
2017-05-31T09:10:20.477Z,300
2017-05-31T09:11:21.217Z,315
2017-05-31T09:12:21.956Z,325
2017-05-31T09:13:22.946Z,320
2017-05-31T09:14:23.688Z,315
2017-05-31T09:15:24.431Z,310
2017-05-31T09:16:25.177Z,325
2017-05-31T09:17:25.921Z,350
2017-05-31T09:18:26.911Z,390
2017-05-31T09:19:27.651Z,465
2017-05-31T09:20:28.394Z,560
2017-05-31T09:21:29.140Z,1055
2017-05-31T09:22:29.884Z,945
2017-05-31T09:23:30.878Z,575
2017-05-31T09:24:31.624Z,1880
2017-05-31T09:25:32.365Z,690
2017-05-31T09:26:33.106Z,355
2017-05-31T09:27:33.851Z,355
2017-05-31T09:28:34.844Z,370
2017-05-31T09:29:35.587Z,400
2017-05-31T09:30:36.359Z,600
2017-05-31T09:31:37.104Z,590
2017-05-31T09:32:37.849Z,1920
2017-05-31T09:33:38.838Z,915
2017-05-31T09:34:39.583Z,2100
2017-05-31T09:35:40.325Z,1805
2017-05-31T09:36:41.093Z,2030
2017-05-31T09:37:41.863Z,755
2017-05-31T09:38:42.859Z,680
2017-05-31T09:39:43.621Z,605
2017-05-31T09:40:44.365Z,610
2017-05-31T09:41:45.105Z,725
2017-05-31T09:42:45.848Z,2265
2017-05-31T09:43:46.840Z,2255
2017-05-31T09:44:47.584Z,2250
2017-05-31T09:45:48.331Z,2005
2017-05-31T09:46:49.072Z,2195
2017-05-31T09:47:49.814Z,2300
2017-05-31T09:48:50.813Z,2195
2017-05-31T09:49:51.556Z,2150
2017-05-31T09:50:52.305Z,2155
2017-05-31T09:51:53.049Z,2190
2017-05-31T09:52:53.822Z,2255
2017-05-31T09:53:54.819Z,1630
2017-05-31T09:54:55.567Z,1665
2017-05-31T09:55:56.312Z,550
2017-05-31T09:56:57.061Z,955
2017-05-31T09:57:57.805Z,2380
2017-05-31T09:58:58.799Z,1120
2017-05-31T09:59:59.544Z,635
2017-05-31T10:01:00.291Z,1155
2017-05-31T10:02:01.059Z,2640
2017-05-31T10:03:01.802Z,1615
2017-05-31T10:04:02.798Z,1930
2017-05-31T10:05:03.544Z,710
2017-05-31T10:06:04.287Z,1105
2017-05-31T10:07:05.034Z,490
2017-05-31T10:08:05.774Z,330
2017-05-31T10:09:06.766Z,275
2017-05-31T10:10:07.509Z,280
2017-05-31T10:11:08.249Z,315
2017-05-31T10:12:08.994Z,360
2017-05-31T10:13:09.736Z,360
2017-05-31T10:14:10.725Z,370
2017-05-31T10:15:11.468Z,435
2017-05-31T10:16:12.213Z,535
2017-05-31T10:17:12.958Z,570
2017-05-31T10:18:13.695Z,2420
2017-05-31T10:19:14.686Z,725
2017-05-31T10:20:15.431Z,560
2017-05-31T10:21:16.170Z,580
2017-05-31T10:22:16.914Z,840
2017-05-31T10:23:17.655Z,1965
2017-05-31T10:24:18.648Z,505
2017-05-31T10:25:19.390Z,470
2017-05-31T10:26:20.133Z,500
2017-05-31T10:27:20.878Z,2510
2017-05-31T10:28:21.620Z,2505
2017-05-31T10:29:22.618Z,2475
2017-05-31T10:30:23.362Z,1235
2017-05-31T10:31:24.106Z,1460
2017-05-31T10:32:24.849Z,2590
2017-05-31T10:33:25.597Z,2635
2017-05-31T10:34:26.591Z,2630
2017-05-31T10:35:27.342Z,2615
2017-05-31T10:36:28.085Z,2495
2017-05-31T10:37:28.831Z,2630
2017-05-31T10:38:29.578Z,1165
2017-05-31T10:39:30.574Z,960
2017-05-31T10:40:31.321Z,1325
2017-05-31T10:41:32.065Z,2080
2017-05-31T10:42:32.815Z,1260
2017-05-31T10:43:33.559Z,365
2017-05-31T10:44:34.580Z,265
2017-05-31T10:45:35.320Z,210
2017-05-31T10:46:36.065Z,170
2017-05-31T10:47:36.806Z,150
2017-05-31T10:48:37.575Z,130
2017-05-31T10:49:38.565Z,120
2017-05-31T10:50:39.309Z,120
2017-05-31T10:51:40.071Z,130
2017-05-31T10:52:40.815Z,145
2017-05-31T10:53:41.554Z,160
2017-05-31T10:54:42.543Z,180
2017-05-31T10:55:43.286Z,205
2017-05-31T10:56:44.026Z,235
2017-05-31T10:57:44.766Z,260
2017-05-31T10:58:45.512Z,295
2017-05-31T10:59:46.497Z,330
2017-05-31T11:00:47.238Z,360
2017-05-31T11:01:47.976Z,405
2017-05-31T11:02:48.716Z,465
2017-05-31T11:03:49.481Z,2295
2017-05-31T11:04:50.474Z,965
2017-05-31T11:05:51.216Z,2465
2017-05-31T11:06:51.957Z,2625
2017-05-31T11:07:52.699Z,2605
2017-05-31T11:08:53.448Z,2580
2017-05-31T11:09:54.438Z,2575
2017-05-31T11:10:55.185Z,2635
2017-05-31T11:11:55.955Z,2625
2017-05-31T11:12:56.729Z,2680
2017-05-31T11:13:57.473Z,2705
2017-05-31T11:14:58.472Z,2520
2017-05-31T11:15:59.221Z,2500
2017-05-31T11:16:59.969Z,2670
2017-05-31T11:18:00.718Z,2770
2017-05-31T11:19:01.476Z,2805
2017-05-31T11:20:02.489Z,2900
2017-05-31T11:21:03.240Z,2690
2017-05-31T11:22:03.991Z,2830
2017-05-31T11:23:04.744Z,2685
2017-05-31T11:24:05.504Z,2665
2017-05-31T11:25:06.513Z,2695
2017-05-31T11:26:07.272Z,2740
2017-05-31T11:27:08.028Z,2725
2017-05-31T11:28:08.806Z,2710
2017-05-31T11:29:09.585Z,865
2017-05-31T11:30:10.589Z,2815
2017-05-31T11:31:11.345Z,2875
2017-05-31T11:32:12.098Z,2265
2017-05-31T11:33:12.851Z,2795
2017-05-31T11:34:13.606Z,550
2017-05-31T11:35:14.609Z,460
2017-05-31T11:36:15.366Z,500
2017-05-31T11:37:16.124Z,540
2017-05-31T11:38:16.874Z,590
2017-05-31T11:39:17.626Z,605
2017-05-31T11:40:18.629Z,720
2017-05-31T11:41:19.376Z,870
2017-05-31T11:42:20.121Z,735
2017-05-31T11:43:20.891Z,2010
2017-05-31T11:44:21.634Z,1830
2017-05-31T11:45:22.635Z,2740
2017-05-31T11:46:23.382Z,620
2017-05-31T11:47:24.137Z,1045
2017-05-31T11:48:24.878Z,715
2017-05-31T11:49:25.619Z,665
2017-05-31T11:50:26.613Z,875
2017-05-31T11:51:27.356Z,1075
2017-05-31T11:52:28.098Z,1985
2017-05-31T11:53:28.843Z,785
2017-05-31T11:54:29.614Z,685
2017-05-31T11:55:30.610Z,620
2017-05-31T11:56:31.353Z,2650
2017-05-31T11:57:32.121Z,2925
2017-05-31T11:58:32.865Z,1005
2017-05-31T11:59:33.637Z,740
2017-05-31T12:00:34.629Z,450
2017-05-31T12:01:35.375Z,355
2017-05-31T12:02:36.115Z,275
2017-05-31T12:03:36.859Z,220
2017-05-31T12:04:37.656Z,175
2017-05-31T12:05:38.594Z,150
2017-05-31T12:06:39.333Z,130
2017-05-31T12:07:40.101Z,120
2017-05-31T12:08:40.841Z,110
2017-05-31T12:09:41.638Z,100
2017-05-31T12:10:42.571Z,95
2017-05-31T12:11:43.311Z,85
2017-05-31T12:12:44.049Z,80
2017-05-31T12:13:44.792Z,75
2017-05-31T12:14:45.534Z,70
2017-05-31T12:15:46.520Z,60
2017-05-31T12:16:47.261Z,55
2017-05-31T12:17:48.025Z,50
2017-05-31T12:18:48.790Z,50
2017-05-31T12:19:49.556Z,45
2017-05-31T12:20:50.544Z,45
2017-05-31T12:21:51.284Z,45
2017-05-31T12:22:52.020Z,50
2017-05-31T12:23:52.756Z,50
2017-05-31T12:24:53.497Z,55
2017-05-31T12:25:54.483Z,55
2017-05-31T12:26:55.220Z,55
2017-05-31T12:27:55.956Z,50
2017-05-31T12:28:56.695Z,50
2017-05-31T12:29:57.437Z,50
2017-05-31T12:30:58.425Z,50
2017-05-31T12:31:59.165Z,50
2017-05-31T12:32:59.905Z,55
2017-05-31T12:34:00.643Z,55
2017-05-31T12:35:01.384Z,55
2017-05-31T12:36:02.373Z,50
2017-05-31T12:37:03.135Z,50
2017-05-31T12:38:03.871Z,50
2017-05-31T12:39:04.613Z,55
2017-05-31T12:40:05.348Z,60
2017-05-31T12:41:06.335Z,60
2017-05-31T12:42:07.069Z,65
2017-05-31T12:43:07.805Z,65
2017-05-31T12:44:08.570Z,70
2017-05-31T12:45:09.310Z,70
2017-05-31T12:46:10.294Z,75
2017-05-31T12:47:11.032Z,80
2017-05-31T12:48:11.768Z,80
2017-05-31T12:49:12.506Z,80
2017-05-31T12:50:13.242Z,80
2017-05-31T12:51:14.226Z,80
2017-05-31T12:52:14.988Z,80
2017-05-31T12:53:15.721Z,85
2017-05-31T12:54:16.458Z,90
2017-05-31T12:55:17.193Z,90
2017-05-31T12:56:18.181Z,100
2017-05-31T12:57:18.919Z,105
2017-05-31T12:58:19.654Z,110
2017-05-31T12:59:20.391Z,125
2017-05-31T13:00:21.132Z,135
2017-05-31T13:01:22.143Z,150
2017-05-31T13:02:22.878Z,165
2017-05-31T13:03:23.614Z,175
2017-05-31T13:04:24.349Z,195
2017-05-31T13:05:25.083Z,220
2017-05-31T13:06:26.073Z,245
2017-05-31T13:07:26.806Z,275
2017-05-31T13:08:27.544Z,430
2017-05-31T13:09:28.279Z,320
2017-05-31T13:10:29.015Z,345
2017-05-31T13:11:30.006Z,375
2017-05-31T13:12:30.746Z,420
2017-05-31T13:13:31.487Z,465
2017-05-31T13:14:32.224Z,515
2017-05-31T13:15:32.963Z,555
2017-05-31T13:16:33.955Z,605
2017-05-31T13:17:34.691Z,800
2017-05-31T13:18:35.432Z,720
2017-05-31T13:19:36.176Z,470
2017-05-31T13:20:36.919Z,415
2017-05-31T13:21:37.913Z,375
2017-05-31T13:22:38.654Z,360
2017-05-31T13:23:39.405Z,340
2017-05-31T13:24:40.138Z,320
2017-05-31T13:25:40.880Z,300
2017-05-31T13:26:41.870Z,275
2017-05-31T13:27:42.612Z,245
2017-05-31T13:28:43.354Z,225
2017-05-31T13:29:44.096Z,210
2017-05-31T13:30:44.836Z,195
2017-05-31T13:31:45.829Z,180
2017-05-31T13:32:46.594Z,165
2017-05-31T13:33:47.334Z,155
2017-05-31T13:34:48.077Z,140
2017-05-31T13:35:48.820Z,130
2017-05-31T13:36:49.805Z,120
2017-05-31T13:37:50.544Z,110
2017-05-31T13:38:51.286Z,105
2017-05-31T13:39:52.027Z,105
2017-05-31T13:40:52.763Z,100
2017-05-31T13:41:53.753Z,95
2017-05-31T13:42:54.489Z,90
2017-05-31T13:43:55.231Z,90
2017-05-31T13:44:55.968Z,85
2017-05-31T13:45:56.704Z,85
2017-05-31T13:46:57.691Z,85
2017-05-31T13:47:58.424Z,85
2017-05-31T13:48:59.161Z,85
2017-05-31T13:49:59.898Z,80
2017-05-31T13:51:00.633Z,80
2017-05-31T13:52:01.618Z,80
2017-05-31T13:53:02.354Z,80
2017-05-31T13:54:03.093Z,80
2017-05-31T13:55:03.854Z,85
2017-05-31T13:56:04.593Z,85
2017-05-31T13:57:05.576Z,85
2017-05-31T13:58:06.337Z,85
2017-05-31T13:59:07.067Z,85
2017-05-31T14:00:07.803Z,85
2017-05-31T14:01:08.541Z,90
2017-05-31T14:02:09.554Z,90
2017-05-31T14:03:10.291Z,90
2017-05-31T14:04:11.030Z,90
2017-05-31T14:05:11.764Z,90
2017-05-31T14:06:12.500Z,90
2017-05-31T14:07:13.489Z,95
2017-05-31T14:08:14.220Z,95
2017-05-31T14:09:14.983Z,95
2017-05-31T14:10:15.715Z,95
2017-05-31T14:11:16.453Z,95
2017-05-31T14:12:17.435Z,100